sensor_id;sensor_type;location;lat;lon;timestamp;pressure;altitude;pressure_sealevel;temperature;humidity
47763;BME280;33526;42.690;23.322;2023-02-01T07:16:06;95130.53;;;0.96;66.39
47763;BME280;33526;42.690;23.322;2023-02-01T07:27:58;95126.69;;;0.83;66.10
47763;BME280;33526;42.690;23.322;2023-02-01T07:30:31;95226.09;;;1.59;66.17
47763;BME280;33526;42.690;23.322;2023-02-01T07:33:44;95215.84;;;1.59;65.67
47763;BME280;33526;42.690;23.322;2023-02-01T07:36:52;95189.81;;;1.60;64.68
47763;BME280;33526;42.690;23.322;2023-02-01T11:50:03;95030.91;;;4.37;51.65
47763;BME280;33526;42.690;23.322;2023-02-01T12:16:52;95162.31;;;5.42;51.19
47763;BME280;33526;42.690;23.322;2023-02-01T12:26:04;95161.28;;;5.35;51.95
47763;BME280;33526;42.690;23.322;2023-02-01T12:29:07;95064.19;;;4.70;51.65
47763;BME280;33526;42.690;23.322;2023-02-01T12:34:52;95150.94;;;5.52;51.86
47763;BME280;33526;42.690;23.322;2023-02-01T12:37:57;95151.56;;;5.60;50.93
47763;BME280;33526;42.690;23.322;2023-02-01T12:46:50;94907.34;;;3.94;50.78
47763;BME280;33526;42.690;23.322;2023-02-01T12:51:49;94993.06;;;4.67;50.54
47763;BME280;33526;42.690;23.322;2023-02-01T12:54:38;95150.41;;;5.74;50.34
47763;BME280;33526;42.690;23.322;2023-02-01T12:57:21;95006.91;;;4.83;49.39
47763;BME280;33526;42.690;23.322;2023-02-01T12:59:54;95057.53;;;5.33;49.56
47763;BME280;33526;42.690;23.322;2023-02-01T13:02:33;95050.72;;;5.38;48.41
47763;BME280;33526;42.690;23.322;2023-02-01T13:05:19;95148.69;;;5.97;49.11
47763;BME280;33526;42.690;23.322;2023-02-01T13:10:35;95139.22;;;5.78;49.08
47763;BME280;33526;42.690;23.322;2023-02-01T13:13:05;95141.75;;;5.72;49.08
47763;BME280;33526;42.690;23.322;2023-02-01T13:15:40;95098.59;;;5.54;49.84
47763;BME280;33526;42.690;23.322;2023-02-01T13:18:13;95096.28;;;5.53;49.23
47763;BME280;33526;42.690;23.322;2023-02-01T13:21:03;95146.00;;;5.77;48.77
47763;BME280;33526;42.690;23.322;2023-02-01T13:23:38;95128.09;;;5.48;49.23
47763;BME280;33526;42.690;23.322;2023-02-01T13:26:04;95104.41;;;5.44;48.98
47763;BME280;33526;42.690;23.322;2023-02-01T13:28:42;95099.94;;;5.33;48.76
47763;BME280;33526;42.690;23.322;2023-02-01T13:31:32;95150.00;;;5.59;48.99
47763;BME280;33526;42.690;23.322;2023-02-01T13:39:25;95130.44;;;5.17;49.50
47763;BME280;33526;42.690;23.322;2023-02-01T13:41:58;95157.66;;;5.39;49.31
47763;BME280;33526;42.690;23.322;2023-02-01T13:44:39;95095.16;;;5.01;49.49
47763;BME280;33526;42.690;23.322;2023-02-01T13:47:28;95099.22;;;5.13;49.91
47763;BME280;33526;42.690;23.322;2023-02-01T13:50:12;95098.03;;;5.14;49.35
47763;BME280;33526;42.690;23.322;2023-02-01T13:52:44;95063.53;;;4.98;48.55
47763;BME280;33526;42.690;23.322;2023-02-01T13:57:46;95080.88;;;5.35;48.79
47763;BME280;33526;42.690;23.322;2023-02-01T14:13:35;95133.84;;;5.87;48.60
47763;BME280;33526;42.690;23.322;2023-02-01T14:24:12;95144.41;;;5.92;48.63
47763;BME280;33526;42.690;23.322;2023-02-01T14:26:49;95145.75;;;5.71;49.15
47763;BME280;33526;42.690;23.322;2023-02-01T14:34:40;95132.94;;;5.61;50.00
47763;BME280;33526;42.690;23.322;2023-02-01T14:44:42;95134.06;;;5.30;51.51
47763;BME280;33526;42.690;23.322;2023-02-01T14:52:46;95146.91;;;5.41;51.10
47763;BME280;33526;42.690;23.322;2023-02-01T14:57:46;95122.09;;;5.01;50.92
47763;BME280;33526;42.690;23.322;2023-02-01T15:00:21;95118.78;;;5.06;51.23
47763;BME280;33526;42.690;23.322;2023-02-01T15:02:48;95113.88;;;4.97;51.16
47763;BME280;33526;42.690;23.322;2023-02-01T15:05:26;95149.13;;;5.29;51.28
47763;BME280;33526;42.690;23.322;2023-02-01T15:07:58;95146.25;;;5.16;51.67
47763;BME280;33526;42.690;23.322;2023-02-01T15:10:26;95146.97;;;5.21;52.05
47763;BME280;33526;42.690;23.322;2023-02-01T15:12:53;95015.31;;;4.27;52.77
47763;BME280;33526;42.690;23.322;2023-02-01T15:15:23;95100.56;;;4.72;52.49
47763;BME280;33526;42.690;23.322;2023-02-01T15:17:55;95089.50;;;4.72;52.56
47763;BME280;33526;42.690;23.322;2023-02-01T15:20:31;95142.53;;;5.07;52.93
47763;BME280;33526;42.690;23.322;2023-02-01T15:23:03;95056.59;;;4.37;52.77
47763;BME280;33526;42.690;23.322;2023-02-01T15:25:34;95124.13;;;4.80;53.52
47763;BME280;33526;42.690;23.322;2023-02-01T15:28:04;95092.69;;;4.70;53.25
47763;BME280;33526;42.690;23.322;2023-02-01T15:30:33;95120.34;;;4.90;52.68
47763;BME280;33526;42.690;23.322;2023-02-01T15:33:06;95120.00;;;4.88;52.69
47763;BME280;33526;42.690;23.322;2023-02-01T15:35:34;95127.16;;;4.86;52.99
47763;BME280;33526;42.690;23.322;2023-02-01T15:43:29;95114.75;;;4.57;53.17
47763;BME280;33526;42.690;23.322;2023-02-01T15:45:58;95078.97;;;4.27;53.40
47763;BME280;33526;42.690;23.322;2023-02-01T15:48:25;95039.00;;;3.91;53.53
47763;BME280;33526;42.690;23.322;2023-02-01T15:50:53;95015.84;;;3.81;53.49
47763;BME280;33526;42.690;23.322;2023-02-01T15:53:24;95098.94;;;4.38;53.02
47763;BME280;33526;42.690;23.322;2023-02-01T15:55:54;95083.47;;;4.20;53.41
47763;BME280;33526;42.690;23.322;2023-02-01T15:58:23;95090.41;;;4.29;52.90
47763;BME280;33526;42.690;23.322;2023-02-01T16:00:51;95130.75;;;4.66;56.11
47763;BME280;33526;42.690;23.322;2023-02-01T16:05:59;95018.06;;;3.70;53.21
47763;BME280;33526;42.690;23.322;2023-02-01T16:08:30;95047.16;;;3.78;53.23
47763;BME280;33526;42.690;23.322;2023-02-01T16:11:20;95019.63;;;3.71;52.51
47763;BME280;33526;42.690;23.322;2023-02-01T16:13:49;95102.75;;;4.04;53.61
47763;BME280;33526;42.690;23.322;2023-02-01T16:16:14;95010.66;;;3.43;53.12
47763;BME280;33526;42.690;23.322;2023-02-01T16:18:40;95043.94;;;3.60;52.82
47763;BME280;33526;42.690;23.322;2023-02-01T16:21:06;95166.06;;;4.42;53.23
47763;BME280;33526;42.690;23.322;2023-02-01T16:23:36;95080.22;;;3.86;52.77
47763;BME280;33526;42.690;23.322;2023-02-01T16:26:02;95079.34;;;3.89;52.84
47763;BME280;33526;42.690;23.322;2023-02-01T16:28:28;95045.84;;;3.63;52.85
47763;BME280;33526;42.690;23.322;2023-02-01T16:30:53;95135.00;;;4.14;53.18
47763;BME280;33526;42.690;23.322;2023-02-01T16:33:20;95171.75;;;4.35;53.36
47763;BME280;33526;42.690;23.322;2023-02-01T16:35:48;95061.03;;;3.55;53.70
47763;BME280;33526;42.690;23.322;2023-02-01T16:38:16;95172.09;;;4.37;54.16
47763;BME280;33526;42.690;23.322;2023-02-01T16:40:44;95069.13;;;3.66;53.21
47763;BME280;33526;42.690;23.322;2023-02-01T16:43:16;95082.69;;;3.80;53.33
47763;BME280;33526;42.690;23.322;2023-02-01T16:45:42;95078.47;;;3.72;53.74
47763;BME280;33526;42.690;23.322;2023-02-01T16:50:43;95065.69;;;3.58;53.41
47763;BME280;33526;42.690;23.322;2023-02-01T16:53:12;95171.88;;;4.28;53.29
47763;BME280;33526;42.690;23.322;2023-02-01T16:55:40;95029.09;;;3.30;53.31
47763;BME280;33526;42.690;23.322;2023-02-01T16:58:05;95177.41;;;4.28;53.51
47763;BME280;33526;42.690;23.322;2023-02-01T17:00:31;95060.44;;;3.43;53.28
47763;BME280;33526;42.690;23.322;2023-02-01T17:02:58;95135.03;;;3.91;53.70
47763;BME280;33526;42.690;23.322;2023-02-01T17:05:24;95165.84;;;4.13;53.71
47763;BME280;33526;42.690;23.322;2023-02-01T17:07:51;95070.38;;;3.61;54.33
47763;BME280;33526;42.690;23.322;2023-02-01T17:10:22;95072.78;;;3.59;54.22
47763;BME280;33526;42.690;23.322;2023-02-01T17:12:49;95161.38;;;4.19;54.55
47763;BME280;33526;42.690;23.322;2023-02-01T17:15:14;95162.47;;;4.25;54.27
47763;BME280;33526;42.690;23.322;2023-02-01T17:17:40;95001.72;;;3.16;53.68
47763;BME280;33526;42.690;23.322;2023-02-01T17:20:21;95014.06;;;3.31;53.74
47763;BME280;33526;42.690;23.322;2023-02-01T17:22:48;95054.09;;;3.67;53.40
47763;BME280;33526;42.690;23.322;2023-02-01T17:25:19;95117.31;;;4.08;54.10
47763;BME280;33526;42.690;23.322;2023-02-01T17:27:45;95097.72;;;3.99;54.19
47763;BME280;33526;42.690;23.322;2023-02-01T17:30:12;95045.09;;;3.62;54.59
47763;BME280;33526;42.690;23.322;2023-02-01T17:32:38;95130.88;;;4.22;56.48
47763;BME280;33526;42.690;23.322;2023-02-01T17:35:04;95005.75;;;3.31;54.57
47763;BME280;33526;42.690;23.322;2023-02-01T17:37:32;94997.66;;;3.20;54.41
47763;BME280;33526;42.690;23.322;2023-02-01T17:39:59;95011.66;;;3.33;54.03
47763;BME280;33526;42.690;23.322;2023-02-01T17:42:27;94981.22;;;3.13;54.59
47763;BME280;33526;42.690;23.322;2023-02-01T17:47:43;95107.72;;;3.93;53.82
47763;BME280;33526;42.690;23.322;2023-02-01T17:50:09;95015.22;;;3.34;53.80
47763;BME280;33526;42.690;23.322;2023-02-01T17:52:38;95026.53;;;3.39;55.29
47763;BME280;33526;42.690;23.322;2023-02-01T17:55:17;94988.81;;;3.29;52.86
47763;BME280;33526;42.690;23.322;2023-02-01T17:57:47;94978.19;;;3.28;52.36
47763;BME280;33526;42.690;23.322;2023-02-01T18:00:14;94934.09;;;3.00;52.70
47763;BME280;33526;42.690;23.322;2023-02-01T18:02:41;95127.66;;;4.24;52.69
47763;BME280;33526;42.690;23.322;2023-02-01T18:05:14;95133.97;;;4.25;53.08
47763;BME280;33526;42.690;23.322;2023-02-01T18:07:48;95142.00;;;4.19;52.93
47763;BME280;33526;42.690;23.322;2023-02-01T18:10:17;95021.03;;;3.39;53.47
47763;BME280;33526;42.690;23.322;2023-02-01T19:53:01;95005.78;;;2.60;58.03
47763;BME280;33526;42.690;23.322;2023-02-01T22:37:19;95005.13;;;2.25;63.24
47763;BME280;33526;42.690;23.322;2023-02-01T22:53:21;95042.78;;;3.14;58.18
47763;BME280;33526;42.690;23.322;2023-02-01T23:11:19;95021.53;;;3.54;54.86
47763;BME280;33526;42.690;23.322;2023-02-01T23:13:44;95093.75;;;4.20;53.47
47763;BME280;33526;42.690;23.322;2023-02-01T23:16:13;95133.25;;;4.60;53.29
47763;BME280;33526;42.690;23.322;2023-02-01T23:18:39;95138.09;;;4.56;53.00
47763;BME280;33526;42.690;23.322;2023-02-01T23:21:09;95131.34;;;4.57;53.43
47763;BME280;33526;42.690;23.322;2023-02-01T23:23:34;95102.03;;;4.40;53.46
47763;BME280;33526;42.690;23.322;2023-02-01T23:26:00;95075.94;;;4.21;52.87
47763;BME280;33526;42.690;23.322;2023-02-01T23:28:27;95084.22;;;4.41;52.29
47763;BME280;33526;42.690;23.322;2023-02-01T23:30:52;95096.94;;;4.38;52.05
47763;BME280;33526;42.690;23.322;2023-02-01T23:33:21;95129.81;;;4.73;51.90
47763;BME280;33526;42.690;23.322;2023-02-01T23:35:57;95010.31;;;3.81;52.32
47763;BME280;33526;42.690;23.322;2023-02-01T23:38:23;95151.44;;;4.62;51.52
47763;BME280;33526;42.690;23.322;2023-02-01T23:40:59;95148.66;;;4.62;51.80
47763;BME280;33526;42.690;23.322;2023-02-01T23:43:26;95128.66;;;4.54;52.95
47763;BME280;33526;42.690;23.322;2023-02-01T23:46:10;95115.34;;;4.29;53.69
47763;BME280;33526;42.690;23.322;2023-02-01T23:48:37;95094.25;;;3.95;54.37
47763;BME280;33526;42.690;23.322;2023-02-01T23:51:02;95037.22;;;3.61;54.56
47763;BME280;33526;42.690;23.322;2023-02-01T23:53:28;95114.75;;;4.17;54.81
47763;BME280;33526;42.690;23.322;2023-02-01T23:55:56;95126.09;;;4.23;55.18
47763;BME280;33526;42.690;23.322;2023-02-01T23:58:22;95133.91;;;4.28;54.21
